Weerstation
Sluispark-LeuvenLeuven-Sluispark

Weerstation
Wilsele-PutkapelWilsele-Putkapel



Nabijgelegen vliegvelden - METAR rapporten

   
EBBE - Wilsele bij Leuven
Gewijzigd: 09-12-2023 02:25
Helder    Wind: Zuiden 18.5 km/h
Helder
Wind: Wind: Zuiden 18.5 km/h
Temperatuur: 7°C
Voelt als: 4°C
Dauwpunt: 6°C
Vochtigheid: 93%
Barometer: 1011 hPa
Bewolking: Helder
Zicht: meer dan 10 km
Bewolking: Helder
EBBE 090125Z AUTO 19010KT 9999 NCD 07/06 Q1011 BLU
EBAW - Antwerp
Gewijzigd: 09-12-2023 02:50
   Wind: Zuiden 13 km/h
Wind: Wind: Zuiden 13 km/h
Temperatuur: 7°C
Voelt als: 4°C
Dauwpunt: 6°C
Vochtigheid: 93%
Barometer: 1010 hPa
Zicht: meer dan 10 km
Bewolking: Bewolking
EBAW 090150Z AUTO 18007KT 9999 // VV/// 07/06 Q1010
EBLG - Li├Ęge
Gewijzigd: 09-12-2023 02:50
Gedeeltelijk bewolkt    Wind: Zuiden 22.2 km/h
Gedeeltelijk bewolkt
Wind: Wind: Zuiden 22.2 km/h
Temperatuur: 7°C
Voelt als: 3°C
Dauwpunt: 5°C
Vochtigheid: 87%
Barometer: 1012 hPa
Bewolking: Gedeeltelijk bewolkt
Zicht: meer dan 10 km
Bewolking: Gedeeltelijk bewolkt 579.1 m
EBLG 090150Z 19012KT 9999 SCT019 07/05 Q1012 NOSIG
EBCV - Mons/Bergen
Gewijzigd: 09-12-2023 02:55
Grotendeels bewolkt    Wind: Zuiden 16.7 km/h
Grotendeels bewolkt
Wind: Wind: Zuiden 16.7 km/h
Temperatuur: 6°C
Voelt als: 3°C
Dauwpunt: 5°C
Vochtigheid: 93%
Barometer: 1010 hPa
Bewolking: Grotendeels bewolkt
Zicht: meer dan 10 km
Bewolking: Licht bewolkt 2438.4 m,
Grotendeels bewolkt 2895.6 m,
Grotendeels bewolkt 3352.8 m
EBCV 090155Z AUTO 19009KT 9999 FEW080/// BKN095/// BKN110/// 06/05 Q1010 BLU
EHBK - Maastricht
Gewijzigd: 09-12-2023 02:55
Grotendeels bewolkt    Wind: Zuiden 20.4 km/h
Grotendeels bewolkt
Wind: Wind: Zuiden 20.4 km/h
Temperatuur: 7°C
Voelt als: 3°C
Dauwpunt: 5°C
Vochtigheid: 87%
Barometer: 1011 hPa
Bewolking: Grotendeels bewolkt
Zicht: meer dan 10 km
Bewolking: Grotendeels bewolkt 518.2 m
EHBK 090155Z AUTO 19011KT 160V220 9999 BKN017 07/05 Q1011
ELLX - Luxemburg
Gewijzigd: 09-12-2023 02:50
Nevel, Bewolking    Wind: Zuiden 11.1 km/h
Nevel, Bewolking
Wind: Wind: Zuiden 11.1 km/h
Temperatuur: 5°C
Voelt als: 2°C
Dauwpunt: 5°C
Vochtigheid: 100%
Barometer: 1014 hPa
Bewolking: Bewolking
Zicht: 2 km
Bewolking: Grotendeels bewolkt 30.5 m,
Bewolking 61 m
ELLX 090150Z AUTO 18006KT 2000 BR BKN001/// OVC002/// 05/05 Q1014 NOSIG
EBOS - Oostende
Gewijzigd: 09-12-2023 02:50
Licht bewolkt    Wind: Zuiden 16.7 km/h
Licht bewolkt
Wind: Wind: Zuiden 16.7 km/h
Temperatuur: 7°C
Voelt als: 4°C
Dauwpunt: 6°C
Vochtigheid: 93%
Barometer: 1009 hPa
Bewolking: Licht bewolkt
Zicht: meer dan 10 km
Bewolking: Licht bewolkt 548.6 m
EBOS 090150Z 18009KT 9999 FEW018 07/06 Q1009 NOSIG
  

Script ontwikkeld door  Saratoga-weather.org Aangepast voor de template door  Weerstation Leuven

U vindt ons ook hier:

UK Metoffice

WeatherCloud

European Weather Network

Weather Underground

Benelux Weather Network

AWEKAS

WeatherlinkIP

HAMweather, WeatherForYou, PWS Weather

Het Weer Aktueel

Apparatuur in gebruik:

Weer-station
Davis VP2 weatherstation

Weer-programma
Meteobridge

Weer-computer
D-Link DIR-505

Davis VP2 weatherstation

Meteobridge

D-Link DIR-505